createdAt,value
2023-02-11T00:04:19.591Z,12.6
2023-02-11T00:06:21.633Z,10.4
2023-02-11T00:08:23.698Z,8.7
2023-02-11T00:10:29.019Z,7.8
2023-02-11T00:12:31.075Z,10.8
2023-02-11T00:14:34.691Z,12.9
2023-02-11T00:16:36.833Z,9.9
2023-02-11T00:18:38.786Z,10.7
2023-02-11T00:20:40.848Z,11.7
2023-02-11T00:22:42.923Z,9.5
2023-02-11T00:24:48.213Z,9.2
2023-02-11T00:26:50.282Z,9.5
2023-02-11T00:28:52.351Z,8.6
2023-02-11T00:31:21.362Z,9.1
2023-02-11T00:33:23.241Z,8.1
2023-02-11T00:37:30.602Z,8
2023-02-11T00:39:32.681Z,7.3
2023-02-11T00:41:34.738Z,8.7
2023-02-11T00:43:36.798Z,6.8
2023-02-11T00:45:38.870Z,5.4
2023-02-11T00:47:40.942Z,7.7
2023-02-11T00:49:43.017Z,7.6
2023-02-11T00:51:48.281Z,6.8
2023-02-11T00:55:52.490Z,6.2
2023-02-11T01:06:06.007Z,6.6
2023-02-11T01:08:08.054Z,4.6
2023-02-11T01:10:10.164Z,5.6
2023-02-11T01:12:12.235Z,6.2
2023-02-11T01:14:14.248Z,6.7
2023-02-11T01:16:16.366Z,6.1
2023-02-11T01:18:18.374Z,6.3
2023-02-11T01:20:23.678Z,5.6
2023-02-11T01:22:25.762Z,5.4
2023-02-11T01:24:27.826Z,7.3
2023-02-11T01:25:30.477Z,5.5
2023-02-11T01:27:32.508Z,7.1
2023-02-11T01:29:34.582Z,5.9
2023-02-11T01:31:36.794Z,5.3
2023-02-11T01:33:41.944Z,6.5
2023-02-11T01:35:43.984Z,6.6
2023-02-11T01:37:46.051Z,6
2023-02-11T01:39:48.120Z,7.3
2023-02-11T01:41:50.185Z,7.4
2023-02-11T01:43:52.246Z,7.1
2023-02-11T01:45:54.284Z,8
2023-02-11T01:47:59.589Z,6.4
2023-02-11T01:50:01.645Z,6.1
2023-02-11T01:52:03.695Z,6.5
2023-02-11T01:54:05.768Z,7.7
2023-02-11T01:56:07.916Z,7.7
2023-02-11T01:58:09.883Z,6.1
2023-02-11T02:00:11.949Z,5.7
2023-02-11T02:02:17.240Z,8.1
2023-02-11T02:04:19.302Z,7.4
2023-02-11T02:06:21.382Z,8
2023-02-11T02:08:23.446Z,7.5
2023-02-11T02:10:25.508Z,7.8
2023-02-11T02:12:27.547Z,6.5
2023-02-11T02:14:29.613Z,8.4
2023-02-11T02:16:35.036Z,9.3
2023-02-11T02:18:36.965Z,6.9
2023-02-11T02:20:39.032Z,8.5
2023-02-11T02:23:43.737Z,7.6
2023-02-11T02:27:47.871Z,7.8
2023-02-11T02:29:53.153Z,9.1
2023-02-11T02:33:57.267Z,8.1
2023-02-11T02:35:59.344Z,8.9
2023-02-11T02:40:03.479Z,7.7
2023-02-11T02:46:12.933Z,7.8
2023-02-11T02:48:14.922Z,8.1
2023-02-11T02:50:17.024Z,11.2
2023-02-11T02:52:19.057Z,7
2023-02-11T02:54:21.121Z,7.5
2023-02-11T02:56:23.175Z,8
2023-02-11T02:58:28.457Z,9.6
2023-02-11T03:00:30.573Z,8.4
2023-02-11T03:02:32.603Z,8.9
2023-02-11T03:04:34.634Z,7
2023-02-11T03:06:36.678Z,7.8
2023-02-11T03:08:38.760Z,6.5
2023-02-11T03:10:40.841Z,8.9
2023-02-11T03:12:46.097Z,9.8
2023-02-11T03:14:48.172Z,9.1
2023-02-11T03:16:50.217Z,7.5
2023-02-11T03:17:52.845Z,8.8
2023-02-11T03:23:59.063Z,9.1
2023-02-11T03:32:10.601Z,8.4
2023-02-11T03:42:24.115Z,9
2023-02-11T03:48:30.266Z,9.1
2023-02-11T03:50:32.328Z,8.9
2023-02-11T03:52:34.384Z,9.7
2023-02-11T03:56:41.755Z,9
2023-02-11T03:58:43.820Z,8.5
2023-02-11T04:00:45.904Z,8.1
2023-02-11T04:02:47.976Z,11.8
2023-02-11T04:04:50.002Z,11.3
2023-02-11T04:08:57.364Z,12.3
2023-02-11T04:10:59.444Z,8.6
2023-02-11T04:13:01.490Z,9.5
2023-02-11T04:23:41.794Z,12.6
2023-02-11T04:31:50.082Z,13.9
2023-02-11T04:40:01.584Z,13.6
2023-02-11T04:48:09.793Z,13.3
2023-02-11T04:52:17.096Z,14.6
2023-02-11T04:54:19.177Z,18.1
2023-02-11T04:56:21.267Z,15.5
2023-02-11T04:58:23.351Z,15.1
2023-02-11T05:00:25.401Z,16.3
2023-02-11T05:02:27.550Z,15.7
2023-02-11T05:04:32.919Z,14.9
2023-02-11T05:06:34.902Z,18.4
2023-02-11T05:08:36.970Z,15.4
2023-02-11T05:09:39.598Z,15.8
2023-02-11T05:11:41.685Z,16.1
2023-02-11T05:19:53.158Z,20.3
2023-02-11T05:22:02.498Z,19.4
2023-02-11T05:23:57.309Z,20.7
2023-02-11T05:25:59.359Z,19.7
2023-02-11T05:28:01.421Z,19
2023-02-11T05:30:03.482Z,19
2023-02-11T05:32:08.830Z,21.3
2023-02-11T05:34:10.891Z,18.7
2023-02-11T05:36:12.948Z,13.3
2023-02-11T05:38:15.012Z,23.5
2023-02-11T05:40:17.079Z,22.8
2023-02-11T05:42:19.137Z,22.1
2023-02-11T05:44:21.184Z,21.2
2023-02-11T05:46:26.568Z,22
2023-02-11T05:48:28.565Z,22.7
2023-02-11T05:50:30.620Z,21.1
2023-02-11T05:56:36.853Z,22.6
2023-02-11T05:58:38.909Z,22.5
2023-02-11T06:00:44.233Z,24.9
2023-02-11T06:02:46.377Z,24.6
2023-02-11T06:04:48.367Z,22.6
2023-02-11T06:05:52.812Z,24.1
2023-02-11T06:07:54.592Z,21.9
2023-02-11T06:11:58.730Z,23.1
2023-02-11T06:14:04.355Z,21.6
2023-02-11T06:20:10.648Z,21.4
2023-02-11T06:22:12.609Z,23.4
2023-02-11T06:26:16.844Z,22.7
2023-02-11T06:30:24.097Z,25.6
2023-02-11T06:32:42.859Z,24.6
2023-02-11T06:34:28.483Z,22
2023-02-11T06:36:30.524Z,22
2023-02-11T06:38:32.627Z,21.2
2023-02-11T06:40:34.662Z,21
2023-02-11T06:42:39.978Z,23.8
2023-02-11T06:48:46.185Z,22.6
2023-02-11T06:50:48.243Z,24.5
2023-02-11T06:52:50.327Z,25.4
2023-02-11T06:54:52.374Z,23.6
2023-02-11T06:58:59.769Z,23.7
2023-02-11T07:01:01.826Z,19
2023-02-11T07:02:04.574Z,23.1
2023-02-11T07:08:10.688Z,23.9
2023-02-11T07:10:15.976Z,26.1
2023-02-11T07:12:18.042Z,24.3
2023-02-11T07:14:20.108Z,29
2023-02-11T07:16:22.220Z,22.5
2023-02-11T07:18:24.242Z,25.2
2023-02-11T07:20:26.308Z,23.4
2023-02-11T07:24:33.666Z,19.8
2023-02-11T07:30:39.882Z,27.6
2023-02-11T07:32:41.925Z,28
2023-02-11T07:44:57.538Z,29
2023-02-11T07:46:59.854Z,28.6
2023-02-11T07:49:01.676Z,27.9
2023-02-11T07:51:03.735Z,28.1
2023-02-11T07:53:09.011Z,29.6
2023-02-11T07:55:11.116Z,27
2023-02-11T07:57:13.162Z,28.6
2023-02-11T07:59:41.987Z,31.4
2023-02-11T08:03:46.087Z,25.5
2023-02-11T08:05:51.716Z,30.8
2023-02-11T08:07:53.484Z,28
2023-02-11T08:09:55.545Z,26.4
2023-02-11T08:11:57.615Z,22.4
2023-02-11T08:13:59.675Z,27.6
2023-02-11T08:16:01.780Z,27.8
2023-02-11T08:18:03.819Z,26.7
2023-02-11T08:20:09.126Z,28
2023-02-11T08:22:11.199Z,29
2023-02-11T08:24:13.258Z,31.4
2023-02-11T08:26:15.332Z,27
2023-02-11T08:28:17.463Z,25.2
2023-02-11T08:30:19.467Z,25.1
2023-02-11T08:32:21.631Z,26.5
2023-02-11T08:36:28.920Z,27.8
2023-02-11T08:38:30.996Z,29.5
2023-02-11T08:40:33.072Z,30.1
2023-02-11T08:42:35.154Z,27.2
2023-02-11T08:46:39.301Z,25.8
2023-02-11T08:48:44.621Z,29.7
2023-02-11T08:53:51.404Z,28.1
2023-02-11T08:55:53.565Z,28.9
2023-02-11T09:02:02.996Z,29.7
2023-02-11T09:04:05.040Z,30.2
2023-02-11T09:06:07.118Z,28.2
2023-02-11T09:08:09.186Z,25.5
2023-02-11T09:10:11.257Z,26.2
2023-02-11T09:12:13.354Z,28
2023-02-11T09:16:20.845Z,29.2
2023-02-11T09:18:22.816Z,25.9
2023-02-11T09:20:24.879Z,27.7
2023-02-11T09:24:29.072Z,24.6
2023-02-11T09:26:31.138Z,24.2
2023-02-11T09:34:42.724Z,25.6
2023-02-11T09:36:44.798Z,28.4
2023-02-11T09:40:49.209Z,26.8
2023-02-11T09:44:56.403Z,27.4
2023-02-11T09:46:58.491Z,24.9
2023-02-11T09:49:00.593Z,25.4
2023-02-11T09:50:03.272Z,25
2023-02-11T09:52:05.336Z,25.2
2023-02-11T09:54:07.441Z,27.1
2023-02-11T09:56:09.554Z,24.9
2023-02-11T09:58:14.908Z,24.3
2023-02-11T10:00:17.013Z,26.3
2023-02-11T10:02:19.096Z,22.2
2023-02-11T10:04:21.243Z,27
2023-02-11T10:06:23.333Z,26.7
2023-02-11T10:08:25.446Z,24.9
2023-02-11T10:10:27.535Z,22.9
2023-02-11T10:16:36.969Z,20.9
2023-02-11T10:18:39.115Z,20.2
2023-02-11T10:20:41.212Z,22.6
2023-02-11T10:22:43.326Z,24
2023-02-11T10:24:45.438Z,22.8
2023-02-11T10:28:52.948Z,22.9
2023-02-11T10:30:55.455Z,21.6
2023-02-11T10:32:57.019Z,19.5
2023-02-11T10:39:03.724Z,22.6
2023-02-11T10:45:13.237Z,20.4
2023-02-11T10:46:15.841Z,24.4
2023-02-11T10:48:17.910Z,21
2023-02-11T10:50:20.063Z,19
2023-02-11T10:52:22.182Z,21
2023-02-11T10:54:27.537Z,21.5
2023-02-11T10:56:29.664Z,17.8
2023-02-11T10:58:31.781Z,18.9
2023-02-11T11:00:33.916Z,20.4
2023-02-11T11:02:36.053Z,17.9
2023-02-11T11:04:38.243Z,15
2023-02-11T11:08:45.716Z,15.1
2023-02-11T11:10:47.812Z,16.8
2023-02-11T11:12:49.846Z,15.9
2023-02-11T11:18:56.113Z,13.8
2023-02-11T11:23:03.616Z,14.5
2023-02-11T11:25:05.765Z,13.3
2023-02-11T11:27:07.873Z,16.1
2023-02-11T11:29:10.006Z,14.8
2023-02-11T11:31:12.284Z,13.1
2023-02-11T11:35:16.389Z,14.8
2023-02-11T11:37:21.759Z,14.1
2023-02-11T11:41:25.821Z,14.3
2023-02-11T11:43:54.658Z,13.1
2023-02-11T11:45:56.788Z,14.2
2023-02-11T11:47:58.892Z,13.9
2023-02-11T11:50:04.267Z,14.4
2023-02-11T11:52:06.397Z,13.5
2023-02-11T11:54:08.531Z,13
2023-02-11T11:56:10.684Z,12.1
2023-02-11T11:58:14.367Z,14.7
2023-02-11T12:00:16.478Z,14.1
2023-02-11T12:02:18.475Z,14.6
2023-02-11T12:06:25.882Z,13.8
2023-02-11T12:10:30.154Z,14.2
2023-02-11T12:12:32.288Z,14.5
2023-02-11T12:14:34.216Z,14.4
2023-02-11T12:16:36.408Z,13.3
2023-02-11T12:22:45.882Z,12.1
2023-02-11T12:24:48.038Z,13.5
2023-02-11T12:32:59.732Z,11
2023-02-11T12:38:06.811Z,13.6
2023-02-11T12:40:08.913Z,13.1
2023-02-11T12:42:10.967Z,11.7
2023-02-11T12:44:13.095Z,12.4
2023-02-11T12:46:18.572Z,12.5
2023-02-11T12:48:20.653Z,12.3
2023-02-11T12:50:22.822Z,9.3
2023-02-11T12:52:24.841Z,11.7
2023-02-11T12:54:26.961Z,11.7
2023-02-11T12:56:29.148Z,12.2
2023-02-11T12:58:44.085Z,11.3
2023-02-11T13:00:36.561Z,11.1
2023-02-11T13:02:38.747Z,10
2023-02-11T13:04:40.779Z,11.4
2023-02-11T13:06:42.909Z,10.8
2023-02-11T13:08:45.076Z,11.7
2023-02-11T13:10:47.110Z,11
2023-02-11T13:12:49.287Z,10.2
2023-02-11T13:14:54.580Z,11
2023-02-11T13:16:56.721Z,9.8
2023-02-11T13:18:58.745Z,9.6
2023-02-11T13:21:00.900Z,10
2023-02-11T13:23:03.087Z,9.6
2023-02-11T13:25:05.107Z,7.8
2023-02-11T13:27:07.158Z,9.6
2023-02-11T13:29:12.344Z,9.3
2023-02-11T13:33:16.544Z,9.1
2023-02-11T13:34:19.147Z,8.7
2023-02-11T13:38:23.345Z,9.1
2023-02-11T13:42:30.561Z,8
2023-02-11T13:46:34.674Z,8
2023-02-11T13:48:36.733Z,10.4
2023-02-11T13:50:38.799Z,7.2
2023-02-11T13:52:40.853Z,7.8
2023-02-11T13:54:42.915Z,7.3
2023-02-11T13:56:48.092Z,6.8
2023-02-11T13:58:50.148Z,6
2023-02-11T14:00:52.649Z,6.8
2023-02-11T14:02:54.280Z,6.2
2023-02-11T14:04:56.325Z,7.7
2023-02-11T14:06:58.388Z,7
2023-02-11T14:09:00.445Z,6.8
2023-02-11T14:11:05.615Z,6.8
2023-02-11T14:13:07.691Z,7.4
2023-02-11T14:15:09.751Z,7.5
2023-02-11T14:17:11.902Z,7.3
2023-02-11T14:19:13.861Z,6.8
2023-02-11T14:21:15.939Z,6.5
2023-02-11T14:23:17.998Z,6.3
2023-02-11T14:25:23.166Z,6.6
2023-02-11T14:27:25.232Z,7.3
2023-02-11T14:29:27.296Z,5.7
2023-02-11T14:30:30.016Z,6
2023-02-11T14:32:31.956Z,6.1
2023-02-11T14:34:34.028Z,5.6
2023-02-11T14:36:36.162Z,4.6
2023-02-11T14:38:41.452Z,6
2023-02-11T14:40:43.519Z,5.8
2023-02-11T14:42:45.688Z,4.9
2023-02-11T14:44:47.836Z,4.1
2023-02-11T14:46:49.998Z,5.3
2023-02-11T14:48:52.148Z,4.9
2023-02-11T14:50:55.010Z,5.3
2023-02-11T14:53:00.149Z,4.9
2023-02-11T14:55:02.326Z,5.7
2023-02-11T14:57:04.328Z,5.8
2023-02-11T14:59:06.388Z,6.2
2023-02-11T15:01:08.456Z,5
2023-02-11T15:03:10.467Z,5.9
2023-02-11T15:07:17.778Z,5.2
2023-02-11T15:15:26.183Z,8
2023-02-11T15:17:28.288Z,7.6
2023-02-11T15:21:35.608Z,8.4
2023-02-11T15:28:08.692Z,6.6
2023-02-11T15:32:12.822Z,9.2
2023-02-11T15:34:18.037Z,22.2
2023-02-11T15:36:20.137Z,10.4
2023-02-11T15:40:24.142Z,8.9
2023-02-11T15:42:26.182Z,6.5
2023-02-11T15:44:28.203Z,6.8
2023-02-11T15:46:30.385Z,7.7
2023-02-11T15:48:35.609Z,5.8
2023-02-11T15:50:37.639Z,5.7
2023-02-11T15:52:39.686Z,12.9
2023-02-11T15:54:41.737Z,5.9
2023-02-11T15:56:43.768Z,6.3
2023-02-11T15:58:45.817Z,6.5
2023-02-11T16:00:47.857Z,12.2
2023-02-11T16:02:53.108Z,7.1
2023-02-11T16:04:55.272Z,8.1
2023-02-11T16:06:57.321Z,8.1
2023-02-11T16:08:59.360Z,6.9
2023-02-11T16:11:01.489Z,11.1
2023-02-11T16:13:03.617Z,8.5
2023-02-11T16:15:05.759Z,6.6
2023-02-11T16:17:11.030Z,5.2
2023-02-11T16:19:13.175Z,7.4
2023-02-11T16:21:15.287Z,6.9
2023-02-11T16:22:17.901Z,7.1
2023-02-11T16:26:22.163Z,8.6
2023-02-11T16:30:29.525Z,9.3
2023-02-11T16:36:35.776Z,10.5
2023-02-11T16:38:37.933Z,9.5
2023-02-11T16:40:39.970Z,8.2
2023-02-11T16:42:41.986Z,8.3
2023-02-11T16:44:47.360Z,8.5
2023-02-11T16:46:49.504Z,10.1
2023-02-11T16:48:51.434Z,8.8
2023-02-11T16:50:53.802Z,9.6
2023-02-11T16:52:55.608Z,10.5
2023-02-11T16:54:57.646Z,9.8
2023-02-11T16:56:59.763Z,8.7
2023-02-11T16:59:05.830Z,12.1
2023-02-11T17:01:07.365Z,9.7
2023-02-11T17:03:09.300Z,9.3
2023-02-11T17:05:11.344Z,8.3
2023-02-11T17:07:13.459Z,7.9
2023-02-11T17:09:15.592Z,6.6
2023-02-11T17:11:17.609Z,7.7
2023-02-11T17:13:23.009Z,7
2023-02-11T17:15:25.007Z,7.4
2023-02-11T17:17:27.060Z,6.6
2023-02-11T17:18:29.639Z,7.5
2023-02-11T17:20:31.761Z,7.8
2023-02-11T17:22:33.897Z,8.3
2023-02-11T17:24:36.051Z,8.9
2023-02-11T17:26:41.425Z,9.1
2023-02-11T17:28:43.531Z,7.5
2023-02-11T17:30:45.624Z,8
2023-02-11T17:34:49.731Z,9.8
2023-02-11T17:36:51.850Z,9.3
2023-02-11T17:38:53.914Z,7.7
2023-02-11T17:49:07.814Z,10.2
2023-02-11T17:51:11.497Z,8.6
2023-02-11T17:53:13.601Z,10.4
2023-02-11T17:55:19.064Z,12.9
2023-02-11T17:57:20.875Z,11
2023-02-11T17:59:23.007Z,9.5
2023-02-11T18:01:25.098Z,9
2023-02-11T18:03:27.192Z,9.8
2023-02-11T18:05:29.325Z,8.6
2023-02-11T18:07:31.433Z,8.7
2023-02-11T18:09:36.779Z,9.7
2023-02-11T18:11:38.822Z,9.5
2023-02-11T18:14:43.518Z,9.6
2023-02-11T18:16:45.716Z,10.8
2023-02-11T18:18:47.775Z,9.1
2023-02-11T18:20:49.883Z,9.5
2023-02-11T18:22:55.284Z,12.9
2023-02-11T18:24:57.422Z,11.4
2023-02-11T18:26:59.446Z,9.7
2023-02-11T18:29:01.555Z,11.2
2023-02-11T18:31:03.732Z,9.6
2023-02-11T18:33:05.738Z,9.6
2023-02-11T18:35:07.836Z,10.9
2023-02-11T18:37:13.205Z,11
2023-02-11T18:39:15.327Z,11.2
2023-02-11T18:43:19.577Z,12.4
2023-02-11T18:49:26.015Z,12.8
2023-02-11T18:55:35.521Z,13.1
2023-02-11T18:57:37.673Z,12.1
2023-02-11T18:59:39.766Z,11.2
2023-02-11T19:01:41.804Z,12.8
2023-02-11T19:03:43.895Z,11.7
2023-02-11T19:05:49.605Z,14
2023-02-11T19:07:51.382Z,12.2
2023-02-11T19:09:53.508Z,11.8
2023-02-11T19:12:22.353Z,11.8
2023-02-11T19:16:26.688Z,12
2023-02-11T19:18:31.904Z,14.5
2023-02-11T19:20:33.926Z,16.2
2023-02-11T19:22:35.909Z,12.8
2023-02-11T19:24:38.032Z,14.1
2023-02-11T19:30:44.437Z,13.7
2023-02-11T19:34:51.799Z,12.5
2023-02-11T19:36:53.945Z,11.6
2023-02-11T19:38:56.078Z,12.7
2023-02-11T19:40:58.159Z,13.1
2023-02-11T19:43:00.257Z,15.6
2023-02-11T19:45:02.360Z,13.8
2023-02-11T19:47:07.716Z,13.9
2023-02-11T19:49:09.826Z,12.8
2023-02-11T19:51:13.303Z,12.8
2023-02-11T19:53:14.022Z,12.6
2023-02-11T19:55:16.122Z,11.4
2023-02-11T19:57:18.256Z,12.1
2023-02-11T19:59:20.357Z,11.8
2023-02-11T20:01:25.779Z,12.8
2023-02-11T20:03:27.819Z,13.8
2023-02-11T20:05:29.876Z,13.4
2023-02-11T20:10:36.776Z,11.8
2023-02-11T20:12:38.854Z,14.1
2023-02-11T20:14:44.188Z,14
2023-02-11T20:16:48.659Z,14.7
2023-02-11T20:18:48.404Z,13
2023-02-11T20:20:50.509Z,13.5
2023-02-11T20:22:52.603Z,12.4
2023-02-11T20:24:54.699Z,12.2
2023-02-11T20:26:56.802Z,13.2
2023-02-11T20:29:02.179Z,13.2
2023-02-11T20:33:06.346Z,14.4
2023-02-11T20:35:08.460Z,14.2
2023-02-11T20:37:10.564Z,14.5
2023-02-11T20:57:38.080Z,14.3
2023-02-11T20:59:40.187Z,14.3
2023-02-11T21:02:45.121Z,15.3
2023-02-11T21:04:47.099Z,16.8
2023-02-11T21:06:49.182Z,15.6
2023-02-11T21:08:51.311Z,15.9
2023-02-11T21:10:56.622Z,17.4
2023-02-11T21:12:58.714Z,18.1
2023-02-11T21:19:04.996Z,14.2
2023-02-11T21:21:07.205Z,17.3
2023-02-11T21:23:09.217Z,16.5
2023-02-11T21:25:14.536Z,15.9
2023-02-11T21:27:16.640Z,18.8
2023-02-11T21:29:18.746Z,15.2
2023-02-11T21:31:20.967Z,15.4
2023-02-11T21:33:22.943Z,15.1
2023-02-11T21:35:25.065Z,15.8
2023-02-11T21:37:27.119Z,16.9
2023-02-11T21:51:45.099Z,17.1
2023-02-11T21:55:52.981Z,17
2023-02-11T21:57:54.615Z,16.1
2023-02-11T21:58:57.313Z,16.3
2023-02-11T22:00:59.420Z,14.8
2023-02-11T22:03:01.438Z,17.6
2023-02-11T22:05:03.620Z,16.1
2023-02-11T22:07:08.880Z,15.5
2023-02-11T22:09:11.007Z,14.4
2023-02-11T22:11:13.088Z,17
2023-02-11T22:13:15.182Z,13.6
2023-02-11T22:15:17.288Z,15.7
2023-02-11T22:17:19.414Z,14.4
2023-02-11T22:19:21.480Z,15.1
2023-02-11T22:21:26.832Z,17.2
2023-02-11T22:23:28.907Z,15.7
2023-02-11T22:25:30.984Z,16.7
2023-02-11T22:27:33.112Z,15.5
2023-02-11T22:31:37.408Z,15.8
2023-02-11T22:33:39.374Z,16.7
2023-02-11T22:35:44.676Z,16.1
2023-02-11T22:37:46.788Z,14.6
2023-02-11T22:39:48.895Z,15
2023-02-11T22:45:55.632Z,13.9
2023-02-11T22:47:57.277Z,14
2023-02-11T22:50:02.583Z,16.3
2023-02-11T22:54:06.829Z,13.3
2023-02-11T22:56:35.668Z,15.9
2023-02-11T22:58:37.746Z,16.3
2023-02-11T23:04:49.673Z,13.1
2023-02-11T23:06:49.374Z,14.3
2023-02-11T23:08:51.440Z,16.5
2023-02-11T23:10:53.513Z,14.6
2023-02-11T23:12:55.629Z,15.5
2023-02-11T23:14:57.703Z,15.3
2023-02-11T23:17:03.053Z,14.3
2023-02-11T23:19:05.129Z,17.3
2023-02-11T23:21:07.212Z,14.3
2023-02-11T23:23:09.301Z,14.8
2023-02-11T23:25:11.392Z,16
2023-02-11T23:27:13.481Z,16.5
2023-02-11T23:31:21.096Z,18.9
2023-02-11T23:33:22.973Z,14.8
2023-02-11T23:35:25.053Z,16.6
2023-02-11T23:37:27.152Z,17.9
2023-02-11T23:39:29.217Z,16.4
2023-02-11T23:41:31.316Z,16
2023-02-11T23:45:40.232Z,17.2
2023-02-11T23:49:44.375Z,18.1
2023-02-11T23:50:47.065Z,18.1
2023-02-11T23:52:49.103Z,17.8
2023-02-11T23:54:51.212Z,17.2
2023-02-11T23:56:53.301Z,17.3
2023-02-11T23:58:58.585Z,17.5
